sensor_id;sensor_type;location;lat;lon;timestamp;P1;durP1;ratioP1;P2;durP2;ratioP2
39448;SDS011;25151;45.566;9.382;2023-04-23T00:01:33;2.47;;;1.27;;
39448;SDS011;25151;45.566;9.382;2023-04-23T00:04:38;2.22;;;1.35;;
39448;SDS011;25151;45.566;9.382;2023-04-23T00:07:40;1.77;;;1.58;;
39448;SDS011;25151;45.566;9.382;2023-04-23T00:10:41;2.65;;;1.70;;
39448;SDS011;25151;45.566;9.382;2023-04-23T00:13:42;3.55;;;1.40;;
39448;SDS011;25151;45.566;9.382;2023-04-23T00:16:43;1.83;;;1.20;;
39448;SDS011;25151;45.566;9.382;2023-04-23T00:19:44;2.80;;;1.55;;
39448;SDS011;25151;45.566;9.382;2023-04-23T00:22:45;4.38;;;1.48;;
39448;SDS011;25151;45.566;9.382;2023-04-23T00:25:45;3.63;;;1.30;;
39448;SDS011;25151;45.566;9.382;2023-04-23T00:28:46;2.28;;;1.05;;
39448;SDS011;25151;45.566;9.382;2023-04-23T00:31:46;1.42;;;1.30;;
39448;SDS011;25151;45.566;9.382;2023-04-23T00:34:47;1.77;;;1.20;;
39448;SDS011;25151;45.566;9.382;2023-04-23T00:37:48;4.05;;;1.45;;
39448;SDS011;25151;45.566;9.382;2023-04-23T00:40:48;1.77;;;1.20;;
39448;SDS011;25151;45.566;9.382;2023-04-23T00:43:49;1.92;;;1.42;;
39448;SDS011;25151;45.566;9.382;2023-04-23T00:46:52;2.78;;;1.60;;
39448;SDS011;25151;45.566;9.382;2023-04-23T00:49:53;1.92;;;1.73;;
39448;SDS011;25151;45.566;9.382;2023-04-23T00:52:55;3.40;;;1.25;;
39448;SDS011;25151;45.566;9.382;2023-04-23T00:55:57;1.80;;;1.55;;
39448;SDS011;25151;45.566;9.382;2023-04-23T00:58:57;1.58;;;1.33;;
39448;SDS011;25151;45.566;9.382;2023-04-23T01:01:58;2.63;;;1.52;;
39448;SDS011;25151;45.566;9.382;2023-04-23T01:04:59;1.70;;;1.40;;
39448;SDS011;25151;45.566;9.382;2023-04-23T01:08:03;1.75;;;1.20;;
39448;SDS011;25151;45.566;9.382;2023-04-23T01:11:04;2.53;;;1.55;;
39448;SDS011;25151;45.566;9.382;2023-04-23T01:14:05;3.30;;;1.45;;
39448;SDS011;25151;45.566;9.382;2023-04-23T01:17:05;1.48;;;1.08;;
39448;SDS011;25151;45.566;9.382;2023-04-23T01:20:08;4.45;;;1.50;;
39448;SDS011;25151;45.566;9.382;2023-04-23T01:23:09;2.70;;;1.60;;
39448;SDS011;25151;45.566;9.382;2023-04-23T01:26:10;2.08;;;1.70;;
39448;SDS011;25151;45.566;9.382;2023-04-23T01:29:14;2.38;;;1.73;;
39448;SDS011;25151;45.566;9.382;2023-04-23T01:32:15;1.75;;;1.50;;
39448;SDS011;25151;45.566;9.382;2023-04-23T01:35:16;2.28;;;1.52;;
39448;SDS011;25151;45.566;9.382;2023-04-23T01:38:17;2.42;;;1.52;;
39448;SDS011;25151;45.566;9.382;2023-04-23T01:41:20;2.38;;;1.70;;
39448;SDS011;25151;45.566;9.382;2023-04-23T01:44:20;2.45;;;1.40;;
39448;SDS011;25151;45.566;9.382;2023-04-23T01:47:21;2.65;;;1.48;;
39448;SDS011;25151;45.566;9.382;2023-04-23T01:50:22;1.88;;;1.35;;
39448;SDS011;25151;45.566;9.382;2023-04-23T01:53:25;2.85;;;1.50;;
39448;SDS011;25151;45.566;9.382;2023-04-23T01:56:26;1.40;;;1.30;;
39448;SDS011;25151;45.566;9.382;2023-04-23T01:59:28;1.70;;;1.58;;
39448;SDS011;25151;45.566;9.382;2023-04-23T02:02:28;1.65;;;1.42;;
39448;SDS011;25151;45.566;9.382;2023-04-23T02:05:29;1.85;;;1.30;;
39448;SDS011;25151;45.566;9.382;2023-04-23T02:08:29;1.77;;;1.52;;
39448;SDS011;25151;45.566;9.382;2023-04-23T02:11:30;1.48;;;1.35;;
39448;SDS011;25151;45.566;9.382;2023-04-23T02:14:31;2.38;;;1.60;;
39448;SDS011;25151;45.566;9.382;2023-04-23T02:17:31;2.25;;;1.65;;
39448;SDS011;25151;45.566;9.382;2023-04-23T02:20:32;2.00;;;1.67;;
39448;SDS011;25151;45.566;9.382;2023-04-23T02:23:35;2.35;;;1.80;;
39448;SDS011;25151;45.566;9.382;2023-04-23T02:26:35;2.88;;;1.42;;
39448;SDS011;25151;45.566;9.382;2023-04-23T02:29:36;1.60;;;1.40;;
39448;SDS011;25151;45.566;9.382;2023-04-23T02:32:37;1.55;;;1.13;;
39448;SDS011;25151;45.566;9.382;2023-04-23T02:35:38;1.45;;;1.30;;
39448;SDS011;25151;45.566;9.382;2023-04-23T02:38:39;1.70;;;1.42;;
39448;SDS011;25151;45.566;9.382;2023-04-23T02:41:41;1.33;;;1.20;;
39448;SDS011;25151;45.566;9.382;2023-04-23T02:44:42;2.25;;;1.67;;
39448;SDS011;25151;45.566;9.382;2023-04-23T02:47:42;2.08;;;1.65;;
39448;SDS011;25151;45.566;9.382;2023-04-23T02:50:45;2.35;;;1.58;;
39448;SDS011;25151;45.566;9.382;2023-04-23T02:53:46;1.70;;;1.60;;
39448;SDS011;25151;45.566;9.382;2023-04-23T02:56:47;2.25;;;1.67;;
39448;SDS011;25151;45.566;9.382;2023-04-23T02:59:47;1.85;;;1.40;;
39448;SDS011;25151;45.566;9.382;2023-04-23T03:02:50;2.22;;;1.70;;
39448;SDS011;25151;45.566;9.382;2023-04-23T03:06:01;3.00;;;2.47;;
39448;SDS011;25151;45.566;9.382;2023-04-23T03:09:02;2.00;;;1.80;;
39448;SDS011;25151;45.566;9.382;2023-04-23T03:12:04;1.65;;;1.20;;
39448;SDS011;25151;45.566;9.382;2023-04-23T03:15:06;1.75;;;1.58;;
39448;SDS011;25151;45.566;9.382;2023-04-23T03:18:11;3.60;;;1.85;;
39448;SDS011;25151;45.566;9.382;2023-04-23T03:21:15;2.60;;;1.63;;
39448;SDS011;25151;45.566;9.382;2023-04-23T03:24:19;2.03;;;1.60;;
39448;SDS011;25151;45.566;9.382;2023-04-23T03:27:19;1.77;;;1.38;;
39448;SDS011;25151;45.566;9.382;2023-04-23T03:30:20;2.08;;;1.48;;
39448;SDS011;25151;45.566;9.382;2023-04-23T03:33:20;1.92;;;1.50;;
39448;SDS011;25151;45.566;9.382;2023-04-23T03:36:21;1.80;;;1.35;;
39448;SDS011;25151;45.566;9.382;2023-04-23T03:39:21;1.85;;;1.40;;
39448;SDS011;25151;45.566;9.382;2023-04-23T03:42:22;2.17;;;1.88;;
39448;SDS011;25151;45.566;9.382;2023-04-23T03:45:23;2.17;;;1.88;;
39448;SDS011;25151;45.566;9.382;2023-04-23T03:48:24;2.15;;;1.65;;
39448;SDS011;25151;45.566;9.382;2023-04-23T03:51:25;1.85;;;1.50;;
39448;SDS011;25151;45.566;9.382;2023-04-23T03:54:26;1.95;;;1.50;;
39448;SDS011;25151;45.566;9.382;2023-04-23T03:57:27;2.55;;;1.88;;
39448;SDS011;25151;45.566;9.382;2023-04-23T04:00:28;1.80;;;1.63;;
39448;SDS011;25151;45.566;9.382;2023-04-23T04:03:28;1.98;;;1.60;;
39448;SDS011;25151;45.566;9.382;2023-04-23T04:06:29;1.90;;;1.58;;
39448;SDS011;25151;45.566;9.382;2023-04-23T04:09:30;4.13;;;2.05;;
39448;SDS011;25151;45.566;9.382;2023-04-23T04:12:31;2.33;;;1.83;;
39448;SDS011;25151;45.566;9.382;2023-04-23T04:15:31;2.95;;;2.13;;
39448;SDS011;25151;45.566;9.382;2023-04-23T04:18:32;2.05;;;1.52;;
39448;SDS011;25151;45.566;9.382;2023-04-23T04:21:32;2.10;;;1.60;;
39448;SDS011;25151;45.566;9.382;2023-04-23T04:24:33;2.00;;;1.70;;
39448;SDS011;25151;45.566;9.382;2023-04-23T04:27:34;1.65;;;1.55;;
39448;SDS011;25151;45.566;9.382;2023-04-23T04:30:38;2.00;;;1.80;;
39448;SDS011;25151;45.566;9.382;2023-04-23T04:33:39;1.92;;;1.63;;
39448;SDS011;25151;45.566;9.382;2023-04-23T04:36:41;1.40;;;1.30;;
39448;SDS011;25151;45.566;9.382;2023-04-23T04:39:42;2.28;;;2.08;;
39448;SDS011;25151;45.566;9.382;2023-04-23T04:42:43;2.78;;;1.70;;
39448;SDS011;25151;45.566;9.382;2023-04-23T04:45:45;1.98;;;1.70;;
39448;SDS011;25151;45.566;9.382;2023-04-23T04:48:46;2.40;;;1.70;;
39448;SDS011;25151;45.566;9.382;2023-04-23T04:51:48;1.85;;;1.60;;
39448;SDS011;25151;45.566;9.382;2023-04-23T04:54:49;2.20;;;1.65;;
39448;SDS011;25151;45.566;9.382;2023-04-23T04:57:49;2.53;;;1.80;;
39448;SDS011;25151;45.566;9.382;2023-04-23T05:00:50;1.63;;;1.38;;
39448;SDS011;25151;45.566;9.382;2023-04-23T05:03:51;1.92;;;1.52;;
39448;SDS011;25151;45.566;9.382;2023-04-23T05:06:52;3.90;;;1.55;;
39448;SDS011;25151;45.566;9.382;2023-04-23T05:09:53;1.50;;;1.40;;
39448;SDS011;25151;45.566;9.382;2023-04-23T05:12:55;3.10;;;1.60;;
39448;SDS011;25151;45.566;9.382;2023-04-23T05:15:56;2.10;;;1.52;;
39448;SDS011;25151;45.566;9.382;2023-04-23T05:18:57;2.67;;;1.85;;
39448;SDS011;25151;45.566;9.382;2023-04-23T05:21:57;1.85;;;1.70;;
39448;SDS011;25151;45.566;9.382;2023-04-23T05:24:58;2.88;;;1.63;;
39448;SDS011;25151;45.566;9.382;2023-04-23T05:27:58;2.15;;;1.63;;
39448;SDS011;25151;45.566;9.382;2023-04-23T05:30:59;2.17;;;1.75;;
39448;SDS011;25151;45.566;9.382;2023-04-23T05:34:01;5.10;;;1.70;;
39448;SDS011;25151;45.566;9.382;2023-04-23T05:37:02;2.33;;;1.70;;
39448;SDS011;25151;45.566;9.382;2023-04-23T05:40:04;4.40;;;1.83;;
39448;SDS011;25151;45.566;9.382;2023-04-23T05:43:06;2.00;;;1.80;;
39448;SDS011;25151;45.566;9.382;2023-04-23T05:46:07;2.67;;;1.67;;
39448;SDS011;25151;45.566;9.382;2023-04-23T05:49:12;4.35;;;2.08;;
39448;SDS011;25151;45.566;9.382;2023-04-23T05:52:14;2.42;;;1.60;;
39448;SDS011;25151;45.566;9.382;2023-04-23T05:55:15;2.83;;;2.10;;
39448;SDS011;25151;45.566;9.382;2023-04-23T05:58:18;4.65;;;2.22;;
39448;SDS011;25151;45.566;9.382;2023-04-23T06:01:19;2.47;;;1.65;;
39448;SDS011;25151;45.566;9.382;2023-04-23T06:04:20;3.85;;;1.92;;
39448;SDS011;25151;45.566;9.382;2023-04-23T06:07:21;6.78;;;2.17;;
39448;SDS011;25151;45.566;9.382;2023-04-23T06:10:21;6.55;;;1.85;;
39448;SDS011;25151;45.566;9.382;2023-04-23T06:13:22;11.77;;;1.98;;
39448;SDS011;25151;45.566;9.382;2023-04-23T06:16:23;4.68;;;1.50;;
39448;SDS011;25151;45.566;9.382;2023-04-23T06:19:25;4.18;;;2.20;;
39448;SDS011;25151;45.566;9.382;2023-04-23T06:22:27;6.90;;;2.55;;
39448;SDS011;25151;45.566;9.382;2023-04-23T06:25:27;8.70;;;2.45;;
39448;SDS011;25151;45.566;9.382;2023-04-23T06:28:29;8.02;;;1.85;;
39448;SDS011;25151;45.566;9.382;2023-04-23T06:31:31;4.07;;;2.40;;
39448;SDS011;25151;45.566;9.382;2023-04-23T06:34:33;6.35;;;1.83;;
39448;SDS011;25151;45.566;9.382;2023-04-23T06:37:34;4.93;;;2.05;;
39448;SDS011;25151;45.566;9.382;2023-04-23T06:40:38;7.55;;;2.20;;
39448;SDS011;25151;45.566;9.382;2023-04-23T06:43:41;7.15;;;2.00;;
39448;SDS011;25151;45.566;9.382;2023-04-23T06:46:42;6.40;;;2.40;;
39448;SDS011;25151;45.566;9.382;2023-04-23T06:49:46;5.18;;;2.05;;
39448;SDS011;25151;45.566;9.382;2023-04-23T06:52:47;4.20;;;1.75;;
39448;SDS011;25151;45.566;9.382;2023-04-23T06:55:48;10.93;;;2.45;;
39448;SDS011;25151;45.566;9.382;2023-04-23T06:58:50;4.25;;;1.70;;
39448;SDS011;25151;45.566;9.382;2023-04-23T07:01:53;5.97;;;2.28;;
39448;SDS011;25151;45.566;9.382;2023-04-23T07:04:54;5.38;;;1.80;;
39448;SDS011;25151;45.566;9.382;2023-04-23T07:07:56;8.27;;;2.15;;
39448;SDS011;25151;45.566;9.382;2023-04-23T07:10:57;6.22;;;2.17;;
39448;SDS011;25151;45.566;9.382;2023-04-23T07:13:58;6.35;;;2.05;;
39448;SDS011;25151;45.566;9.382;2023-04-23T07:16:58;4.30;;;1.90;;
39448;SDS011;25151;45.566;9.382;2023-04-23T07:19:59;5.80;;;1.88;;
39448;SDS011;25151;45.566;9.382;2023-04-23T07:23:04;5.07;;;1.65;;
39448;SDS011;25151;45.566;9.382;2023-04-23T07:26:05;2.58;;;1.67;;
39448;SDS011;25151;45.566;9.382;2023-04-23T07:29:05;3.00;;;1.63;;
39448;SDS011;25151;45.566;9.382;2023-04-23T07:32:07;6.82;;;2.05;;
39448;SDS011;25151;45.566;9.382;2023-04-23T07:35:07;5.43;;;2.20;;
39448;SDS011;25151;45.566;9.382;2023-04-23T07:38:09;3.28;;;1.60;;
39448;SDS011;25151;45.566;9.382;2023-04-23T07:41:10;7.07;;;1.90;;
39448;SDS011;25151;45.566;9.382;2023-04-23T07:44:10;4.45;;;1.92;;
39448;SDS011;25151;45.566;9.382;2023-04-23T07:47:13;6.10;;;2.63;;
39448;SDS011;25151;45.566;9.382;2023-04-23T07:50:14;2.55;;;1.98;;
39448;SDS011;25151;45.566;9.382;2023-04-23T07:53:15;4.82;;;2.20;;
39448;SDS011;25151;45.566;9.382;2023-04-23T07:56:16;4.28;;;1.70;;
39448;SDS011;25151;45.566;9.382;2023-04-23T07:59:17;6.15;;;2.17;;
39448;SDS011;25151;45.566;9.382;2023-04-23T08:02:17;5.88;;;2.58;;
39448;SDS011;25151;45.566;9.382;2023-04-23T08:05:22;3.05;;;1.90;;
39448;SDS011;25151;45.566;9.382;2023-04-23T08:08:23;6.32;;;1.73;;
39448;SDS011;25151;45.566;9.382;2023-04-23T08:11:23;6.03;;;1.70;;
39448;SDS011;25151;45.566;9.382;2023-04-23T08:14:24;5.18;;;2.00;;
39448;SDS011;25151;45.566;9.382;2023-04-23T08:17:26;4.75;;;2.20;;
39448;SDS011;25151;45.566;9.382;2023-04-23T08:20:26;3.97;;;1.92;;
39448;SDS011;25151;45.566;9.382;2023-04-23T08:23:27;4.57;;;1.88;;
39448;SDS011;25151;45.566;9.382;2023-04-23T08:26:28;3.47;;;2.40;;
39448;SDS011;25151;45.566;9.382;2023-04-23T08:29:29;2.50;;;1.75;;
39448;SDS011;25151;45.566;9.382;2023-04-23T08:32:29;5.32;;;2.10;;
39448;SDS011;25151;45.566;9.382;2023-04-23T08:35:30;1.88;;;1.42;;
39448;SDS011;25151;45.566;9.382;2023-04-23T08:38:31;2.15;;;1.70;;
39448;SDS011;25151;45.566;9.382;2023-04-23T08:41:33;2.85;;;1.63;;
39448;SDS011;25151;45.566;9.382;2023-04-23T08:44:43;2.72;;;1.77;;
39448;SDS011;25151;45.566;9.382;2023-04-23T08:47:46;3.53;;;1.65;;
39448;SDS011;25151;45.566;9.382;2023-04-23T08:50:46;3.80;;;1.60;;
39448;SDS011;25151;45.566;9.382;2023-04-23T08:53:49;2.35;;;1.67;;
39448;SDS011;25151;45.566;9.382;2023-04-23T08:56:55;4.63;;;1.75;;
39448;SDS011;25151;45.566;9.382;2023-04-23T08:59:57;2.63;;;1.65;;
39448;SDS011;25151;45.566;9.382;2023-04-23T09:03:00;2.78;;;1.88;;
39448;SDS011;25151;45.566;9.382;2023-04-23T09:06:01;2.40;;;1.70;;
39448;SDS011;25151;45.566;9.382;2023-04-23T09:09:02;4.18;;;1.63;;
39448;SDS011;25151;45.566;9.382;2023-04-23T09:12:04;2.67;;;1.58;;
39448;SDS011;25151;45.566;9.382;2023-04-23T09:15:06;2.38;;;1.95;;
39448;SDS011;25151;45.566;9.382;2023-04-23T09:18:10;3.10;;;1.85;;
39448;SDS011;25151;45.566;9.382;2023-04-23T09:21:10;3.97;;;1.85;;
39448;SDS011;25151;45.566;9.382;2023-04-23T09:24:16;2.63;;;2.10;;
39448;SDS011;25151;45.566;9.382;2023-04-23T09:27:18;2.20;;;1.50;;
39448;SDS011;25151;45.566;9.382;2023-04-23T09:30:24;3.80;;;1.90;;
39448;SDS011;25151;45.566;9.382;2023-04-23T09:33:27;2.20;;;1.77;;
39448;SDS011;25151;45.566;9.382;2023-04-23T09:36:27;2.58;;;1.60;;
39448;SDS011;25151;45.566;9.382;2023-04-23T09:39:31;5.25;;;1.50;;
39448;SDS011;25151;45.566;9.382;2023-04-23T09:42:35;2.38;;;1.50;;
39448;SDS011;25151;45.566;9.382;2023-04-23T09:45:36;2.42;;;1.40;;
39448;SDS011;25151;45.566;9.382;2023-04-23T09:48:46;3.67;;;1.80;;
39448;SDS011;25151;45.566;9.382;2023-04-23T09:51:48;3.30;;;1.73;;
39448;SDS011;25151;45.566;9.382;2023-04-23T09:54:49;2.33;;;1.75;;
39448;SDS011;25151;45.566;9.382;2023-04-23T09:57:50;2.13;;;1.60;;
39448;SDS011;25151;45.566;9.382;2023-04-23T10:00:52;2.80;;;1.75;;
39448;SDS011;25151;45.566;9.382;2023-04-23T10:03:53;5.15;;;2.58;;
39448;SDS011;25151;45.566;9.382;2023-04-23T10:06:59;5.57;;;2.42;;
39448;SDS011;25151;45.566;9.382;2023-04-23T10:10:01;6.88;;;3.00;;
39448;SDS011;25151;45.566;9.382;2023-04-23T10:13:01;7.15;;;3.35;;
39448;SDS011;25151;45.566;9.382;2023-04-23T10:16:03;9.10;;;3.88;;
39448;SDS011;25151;45.566;9.382;2023-04-23T10:19:04;12.40;;;3.70;;
39448;SDS011;25151;45.566;9.382;2023-04-23T10:22:09;8.05;;;3.50;;
39448;SDS011;25151;45.566;9.382;2023-04-23T10:25:12;6.53;;;3.53;;
39448;SDS011;25151;45.566;9.382;2023-04-23T10:28:13;11.63;;;3.50;;
39448;SDS011;25151;45.566;9.382;2023-04-23T10:31:21;10.45;;;3.50;;
39448;SDS011;25151;45.566;9.382;2023-04-23T10:34:26;5.65;;;2.97;;
39448;SDS011;25151;45.566;9.382;2023-04-23T10:37:28;7.53;;;3.05;;
39448;SDS011;25151;45.566;9.382;2023-04-23T10:40:29;7.90;;;3.20;;
39448;SDS011;25151;45.566;9.382;2023-04-23T10:43:33;7.63;;;2.90;;
39448;SDS011;25151;45.566;9.382;2023-04-23T10:46:35;7.10;;;2.80;;
39448;SDS011;25151;45.566;9.382;2023-04-23T10:49:35;5.90;;;3.40;;
39448;SDS011;25151;45.566;9.382;2023-04-23T10:52:37;6.57;;;2.58;;
39448;SDS011;25151;45.566;9.382;2023-04-23T10:55:39;10.23;;;4.00;;
39448;SDS011;25151;45.566;9.382;2023-04-23T10:58:47;5.35;;;2.80;;
39448;SDS011;25151;45.566;9.382;2023-04-23T11:01:50;7.63;;;2.78;;
39448;SDS011;25151;45.566;9.382;2023-04-23T11:04:54;5.38;;;2.30;;
39448;SDS011;25151;45.566;9.382;2023-04-23T11:08:03;5.82;;;2.83;;
39448;SDS011;25151;45.566;9.382;2023-04-23T11:11:06;7.05;;;2.95;;
39448;SDS011;25151;45.566;9.382;2023-04-23T11:14:12;4.57;;;2.35;;
39448;SDS011;25151;45.566;9.382;2023-04-23T11:17:15;5.85;;;2.67;;
39448;SDS011;25151;45.566;9.382;2023-04-23T11:20:18;5.05;;;2.40;;
39448;SDS011;25151;45.566;9.382;2023-04-23T11:23:38;9.27;;;2.45;;
39448;SDS011;25151;45.566;9.382;2023-04-23T11:26:40;5.60;;;2.28;;
39448;SDS011;25151;45.566;9.382;2023-04-23T11:29:42;8.32;;;2.75;;
39448;SDS011;25151;45.566;9.382;2023-04-23T11:32:44;3.85;;;2.30;;
39448;SDS011;25151;45.566;9.382;2023-04-23T11:35:47;4.35;;;2.33;;
39448;SDS011;25151;45.566;9.382;2023-04-23T11:38:48;9.75;;;2.45;;
39448;SDS011;25151;45.566;9.382;2023-04-23T11:41:49;4.72;;;2.20;;
39448;SDS011;25151;45.566;9.382;2023-04-23T11:44:51;5.68;;;2.25;;
39448;SDS011;25151;45.566;9.382;2023-04-23T11:47:52;5.43;;;2.53;;
39448;SDS011;25151;45.566;9.382;2023-04-23T11:50:58;5.07;;;2.78;;
39448;SDS011;25151;45.566;9.382;2023-04-23T11:54:02;4.57;;;2.65;;
39448;SDS011;25151;45.566;9.382;2023-04-23T11:57:03;8.20;;;2.53;;
39448;SDS011;25151;45.566;9.382;2023-04-23T12:00:11;7.10;;;2.38;;
39448;SDS011;25151;45.566;9.382;2023-04-23T12:03:16;6.40;;;2.45;;
39448;SDS011;25151;45.566;9.382;2023-04-23T12:06:16;6.25;;;2.60;;
39448;SDS011;25151;45.566;9.382;2023-04-23T12:09:19;10.60;;;2.20;;
39448;SDS011;25151;45.566;9.382;2023-04-23T12:12:22;6.00;;;2.22;;
39448;SDS011;25151;45.566;9.382;2023-04-23T12:15:23;7.60;;;2.38;;
39448;SDS011;25151;45.566;9.382;2023-04-23T12:18:30;3.00;;;1.90;;
39448;SDS011;25151;45.566;9.382;2023-04-23T12:21:45;7.15;;;2.70;;
39448;SDS011;25151;45.566;9.382;2023-04-23T12:24:57;3.63;;;2.03;;
39448;SDS011;25151;45.566;9.382;2023-04-23T12:27:59;4.78;;;2.20;;
39448;SDS011;25151;45.566;9.382;2023-04-23T12:31:01;4.43;;;2.00;;
39448;SDS011;25151;45.566;9.382;2023-04-23T12:34:02;5.88;;;2.78;;
39448;SDS011;25151;45.566;9.382;2023-04-23T12:37:05;5.25;;;2.42;;
39448;SDS011;25151;45.566;9.382;2023-04-23T12:40:06;6.95;;;2.83;;
39448;SDS011;25151;45.566;9.382;2023-04-23T12:43:07;5.55;;;2.05;;
39448;SDS011;25151;45.566;9.382;2023-04-23T12:46:09;5.40;;;2.08;;
39448;SDS011;25151;45.566;9.382;2023-04-23T12:49:10;4.55;;;2.38;;
39448;SDS011;25151;45.566;9.382;2023-04-23T12:52:11;8.23;;;2.13;;
39448;SDS011;25151;45.566;9.382;2023-04-23T12:55:12;6.88;;;2.50;;
39448;SDS011;25151;45.566;9.382;2023-04-23T12:58:12;8.73;;;2.55;;
39448;SDS011;25151;45.566;9.382;2023-04-23T13:01:13;6.07;;;2.13;;
39448;SDS011;25151;45.566;9.382;2023-04-23T13:04:14;4.75;;;2.13;;
39448;SDS011;25151;45.566;9.382;2023-04-23T13:07:14;9.18;;;2.28;;
39448;SDS011;25151;45.566;9.382;2023-04-23T13:10:15;4.53;;;2.05;;
39448;SDS011;25151;45.566;9.382;2023-04-23T13:13:16;5.07;;;1.80;;
39448;SDS011;25151;45.566;9.382;2023-04-23T13:16:16;4.93;;;1.90;;
39448;SDS011;25151;45.566;9.382;2023-04-23T13:19:17;5.85;;;2.13;;
39448;SDS011;25151;45.566;9.382;2023-04-23T13:22:17;6.60;;;2.65;;
39448;SDS011;25151;45.566;9.382;2023-04-23T13:25:18;3.65;;;1.83;;
39448;SDS011;25151;45.566;9.382;2023-04-23T13:28:20;7.30;;;2.25;;
39448;SDS011;25151;45.566;9.382;2023-04-23T13:31:20;5.07;;;2.10;;
39448;SDS011;25151;45.566;9.382;2023-04-23T13:34:21;5.10;;;2.38;;
39448;SDS011;25151;45.566;9.382;2023-04-23T13:37:22;6.43;;;2.60;;
39448;SDS011;25151;45.566;9.382;2023-04-23T13:40:23;3.63;;;2.05;;
39448;SDS011;25151;45.566;9.382;2023-04-23T13:43:27;4.03;;;2.00;;
39448;SDS011;25151;45.566;9.382;2023-04-23T13:46:27;4.65;;;1.98;;
39448;SDS011;25151;45.566;9.382;2023-04-23T13:49:28;8.07;;;2.88;;
39448;SDS011;25151;45.566;9.382;2023-04-23T13:52:29;10.35;;;2.28;;
39448;SDS011;25151;45.566;9.382;2023-04-23T13:55:30;5.43;;;1.80;;
39448;SDS011;25151;45.566;9.382;2023-04-23T13:58:31;4.53;;;1.98;;
39448;SDS011;25151;45.566;9.382;2023-04-23T14:01:32;4.68;;;2.08;;
39448;SDS011;25151;45.566;9.382;2023-04-23T14:04:33;5.28;;;2.10;;
39448;SDS011;25151;45.566;9.382;2023-04-23T14:07:33;2.50;;;1.60;;
39448;SDS011;25151;45.566;9.382;2023-04-23T14:10:35;3.90;;;2.00;;
39448;SDS011;25151;45.566;9.382;2023-04-23T14:13:35;3.05;;;2.38;;
39448;SDS011;25151;45.566;9.382;2023-04-23T14:16:36;4.45;;;2.35;;
39448;SDS011;25151;45.566;9.382;2023-04-23T14:19:37;3.63;;;2.17;;
39448;SDS011;25151;45.566;9.382;2023-04-23T14:22:37;3.55;;;2.00;;
39448;SDS011;25151;45.566;9.382;2023-04-23T14:25:41;3.30;;;1.70;;
39448;SDS011;25151;45.566;9.382;2023-04-23T14:28:45;6.32;;;2.63;;
39448;SDS011;25151;45.566;9.382;2023-04-23T14:31:51;6.55;;;2.05;;
39448;SDS011;25151;45.566;9.382;2023-04-23T14:34:51;3.53;;;2.10;;
39448;SDS011;25151;45.566;9.382;2023-04-23T14:37:52;4.30;;;1.80;;
39448;SDS011;25151;45.566;9.382;2023-04-23T14:40:53;5.88;;;1.80;;
39448;SDS011;25151;45.566;9.382;2023-04-23T14:43:54;4.80;;;1.95;;
39448;SDS011;25151;45.566;9.382;2023-04-23T14:46:55;3.78;;;1.52;;
39448;SDS011;25151;45.566;9.382;2023-04-23T14:49:56;3.28;;;1.83;;
39448;SDS011;25151;45.566;9.382;2023-04-23T14:52:56;7.25;;;2.20;;
39448;SDS011;25151;45.566;9.382;2023-04-23T14:55:58;2.42;;;1.80;;
39448;SDS011;25151;45.566;9.382;2023-04-23T14:58:58;5.28;;;2.17;;
39448;SDS011;25151;45.566;9.382;2023-04-23T15:01:59;5.28;;;2.10;;
39448;SDS011;25151;45.566;9.382;2023-04-23T15:05:00;5.28;;;2.10;;
39448;SDS011;25151;45.566;9.382;2023-04-23T15:08:01;4.55;;;1.67;;
39448;SDS011;25151;45.566;9.382;2023-04-23T15:11:02;3.55;;;2.00;;
39448;SDS011;25151;45.566;9.382;2023-04-23T15:14:07;2.67;;;1.77;;
39448;SDS011;25151;45.566;9.382;2023-04-23T15:17:31;3.83;;;2.08;;
39448;SDS011;25151;45.566;9.382;2023-04-23T15:20:35;2.45;;;1.83;;
39448;SDS011;25151;45.566;9.382;2023-04-23T15:23:35;2.53;;;1.85;;
39448;SDS011;25151;45.566;9.382;2023-04-23T15:26:39;3.50;;;2.00;;
39448;SDS011;25151;45.566;9.382;2023-04-23T15:29:40;4.85;;;1.83;;
39448;SDS011;25151;45.566;9.382;2023-04-23T15:32:43;3.30;;;1.83;;
39448;SDS011;25151;45.566;9.382;2023-04-23T15:35:44;3.05;;;1.83;;
39448;SDS011;25151;45.566;9.382;2023-04-23T15:38:45;3.92;;;2.30;;
39448;SDS011;25151;45.566;9.382;2023-04-23T15:41:46;2.70;;;1.85;;
39448;SDS011;25151;45.566;9.382;2023-04-23T15:44:47;2.15;;;1.55;;
39448;SDS011;25151;45.566;9.382;2023-04-23T15:47:49;3.45;;;1.90;;
39448;SDS011;25151;45.566;9.382;2023-04-23T15:50:50;2.58;;;1.83;;
39448;SDS011;25151;45.566;9.382;2023-04-23T15:53:52;4.60;;;1.77;;
39448;SDS011;25151;45.566;9.382;2023-04-23T15:56:52;2.85;;;1.90;;
39448;SDS011;25151;45.566;9.382;2023-04-23T15:59:56;2.50;;;1.95;;
39448;SDS011;25151;45.566;9.382;2023-04-23T16:02:56;2.35;;;1.80;;
39448;SDS011;25151;45.566;9.382;2023-04-23T16:06:04;3.47;;;2.08;;
39448;SDS011;25151;45.566;9.382;2023-04-23T16:09:04;3.50;;;1.75;;
39448;SDS011;25151;45.566;9.382;2023-04-23T16:12:08;2.10;;;1.52;;
39448;SDS011;25151;45.566;9.382;2023-04-23T16:15:08;5.07;;;1.95;;
39448;SDS011;25151;45.566;9.382;2023-04-23T16:18:09;5.53;;;1.85;;
39448;SDS011;25151;45.566;9.382;2023-04-23T16:21:10;2.97;;;1.65;;
39448;SDS011;25151;45.566;9.382;2023-04-23T16:24:11;3.50;;;1.95;;
39448;SDS011;25151;45.566;9.382;2023-04-23T16:27:11;5.35;;;1.80;;
39448;SDS011;25151;45.566;9.382;2023-04-23T16:30:14;1.98;;;1.48;;
39448;SDS011;25151;45.566;9.382;2023-04-23T16:33:15;3.08;;;1.67;;
39448;SDS011;25151;45.566;9.382;2023-04-23T16:36:16;4.22;;;1.90;;
39448;SDS011;25151;45.566;9.382;2023-04-23T16:39:17;2.33;;;2.05;;
39448;SDS011;25151;45.566;9.382;2023-04-23T16:42:17;5.07;;;2.10;;
39448;SDS011;25151;45.566;9.382;2023-04-23T16:45:18;3.25;;;2.60;;
39448;SDS011;25151;45.566;9.382;2023-04-23T16:48:22;3.00;;;1.48;;
39448;SDS011;25151;45.566;9.382;2023-04-23T16:51:22;2.85;;;1.73;;
39448;SDS011;25151;45.566;9.382;2023-04-23T16:54:23;4.78;;;2.00;;
39448;SDS011;25151;45.566;9.382;2023-04-23T16:57:25;3.45;;;2.03;;
39448;SDS011;25151;45.566;9.382;2023-04-23T17:00:26;3.25;;;1.80;;
39448;SDS011;25151;45.566;9.382;2023-04-23T17:03:27;6.13;;;1.73;;
39448;SDS011;25151;45.566;9.382;2023-04-23T17:06:28;2.53;;;1.70;;
39448;SDS011;25151;45.566;9.382;2023-04-23T17:09:29;3.25;;;1.80;;
39448;SDS011;25151;45.566;9.382;2023-04-23T17:12:30;2.30;;;1.80;;
39448;SDS011;25151;45.566;9.382;2023-04-23T17:15:31;2.92;;;2.20;;
39448;SDS011;25151;45.566;9.382;2023-04-23T17:18:32;2.65;;;2.20;;
39448;SDS011;25151;45.566;9.382;2023-04-23T17:21:32;3.08;;;2.00;;
39448;SDS011;25151;45.566;9.382;2023-04-23T17:24:33;3.78;;;1.92;;
39448;SDS011;25151;45.566;9.382;2023-04-23T17:27:33;2.10;;;1.70;;
39448;SDS011;25151;45.566;9.382;2023-04-23T17:30:34;3.38;;;1.70;;
39448;SDS011;25151;45.566;9.382;2023-04-23T17:33:35;5.78;;;2.55;;
39448;SDS011;25151;45.566;9.382;2023-04-23T17:36:35;4.97;;;1.92;;
39448;SDS011;25151;45.566;9.382;2023-04-23T17:39:36;3.28;;;1.85;;
39448;SDS011;25151;45.566;9.382;2023-04-23T17:42:37;3.42;;;1.77;;
39448;SDS011;25151;45.566;9.382;2023-04-23T17:45:38;3.30;;;2.42;;
39448;SDS011;25151;45.566;9.382;2023-04-23T17:48:38;4.07;;;1.60;;
39448;SDS011;25151;45.566;9.382;2023-04-23T17:51:40;4.25;;;2.10;;
39448;SDS011;25151;45.566;9.382;2023-04-23T17:54:40;6.47;;;1.88;;
39448;SDS011;25151;45.566;9.382;2023-04-23T17:57:41;2.47;;;1.73;;
39448;SDS011;25151;45.566;9.382;2023-04-23T18:00:41;2.00;;;1.55;;
39448;SDS011;25151;45.566;9.382;2023-04-23T18:03:43;3.17;;;1.67;;
39448;SDS011;25151;45.566;9.382;2023-04-23T18:06:43;4.55;;;1.80;;
39448;SDS011;25151;45.566;9.382;2023-04-23T18:09:44;3.70;;;1.92;;
39448;SDS011;25151;45.566;9.382;2023-04-23T18:12:44;2.33;;;1.73;;
39448;SDS011;25151;45.566;9.382;2023-04-23T18:15:45;2.75;;;2.03;;